Terminal Aerodrome Forecast
Issued by NWS

Home | Current Version | Previous Version | Text Only | Print | Product List | Glossary On
Versions: 1 2 3 4 5 6 7 8 9 10 11 12
410
FTUS46 KSGX 261120
TAFTRM
TAF
KTRM 261120Z 2612/2712 VRB05KT P6SM SKC
     FM261500 15007KT P6SM SKC
     FM262200 29012G22KT P6SM SKC
     FM270200 32015G25KT P6SM SKC
     FM270900 33012KT P6SM SKC=

USA.gov is the U.S. government's official web portal to all federal, state and local government web resources and services.